TimeCDT,TemperatureF,Dew PointF,Humidity,Sea Level PressureIn,VisibilityMPH,Wind Direction,Wind SpeedMPH,Gust SpeedMPH,PrecipitationIn,Events,Conditions,WindDirDegrees,DateUTC
12:15 AM,78.3,75.2,90,29.98,3.0,Calm,Calm,-,N/A,,Clear,0,2013-08-30 05:15:00
12:35 AM,77.2,74.7,92,29.98,3.0,Calm,Calm,-,N/A,,Clear,0,2013-08-30 05:35:00
12:55 AM,77.0,74.5,92,29.98,4.0,Calm,Calm,-,N/A,,Clear,0,2013-08-30 05:55:00
1:15 AM,76.8,74.1,91,29.98,4.0,Calm,Calm,-,N/A,,Clear,0,2013-08-30 06:15:00
1:35 AM,76.3,73.6,91,29.98,5.0,Calm,Calm,-,N/A,,Clear,0,2013-08-30 06:35:00
1:55 AM,76.6,73.9,91,29.98,1.8,Calm,Calm,-,N/A,,Mist,0,2013-08-30 06:55:00
2:15 AM,75.7,73.0,91,29.98,3.0,Calm,Calm,-,N/A,,Clear,0,2013-08-30 07:15:00
2:35 AM,75.6,73.2,92,29.97,2.5,Calm,Calm,-,N/A,,Clear,0,2013-08-30 07:35:00
2:55 AM,75.7,73.4,92,29.97,2.5,Calm,Calm,-,N/A,,Clear,0,2013-08-30 07:55:00
3:15 AM,76.1,73.6,92,29.97,2.0,Calm,Calm,-,N/A,,Clear,0,2013-08-30 08:15:00
3:35 AM,74.7,72.5,93,29.97,2.0,Calm,Calm,-,N/A,,Clear,0,2013-08-30 08:35:00
3:55 AM,74.3,72.1,93,29.97,0.8,Calm,Calm,-,N/A,,Mist,0,2013-08-30 08:55:00
4:15 AM,74.3,72.0,92,29.97,2.5,Calm,Calm,-,N/A,,Clear,0,2013-08-30 09:15:00
4:35 AM,74.1,71.8,92,29.97,1.8,Calm,Calm,-,N/A,,Mist,0,2013-08-30 09:35:00
4:55 AM,73.4,71.2,93,29.97,0.8,Calm,Calm,-,N/A,,Mist,0,2013-08-30 09:55:00
5:15 AM,73.4,71.2,93,29.96,0.2,Calm,Calm,-,N/A,Fog,Fog,0,2013-08-30 10:15:00
5:55 AM,72.9,70.9,93,29.97,3.0,Calm,Calm,-,N/A,,Clear,0,2013-08-30 10:55:00
6:15 AM,72.5,70.7,94,29.97,0.5,Calm,Calm,-,N/A,Fog,Fog,0,2013-08-30 11:15:00
6:35 AM,73.4,71.4,93,29.98,0.2,Calm,Calm,-,N/A,Fog,Fog,0,2013-08-30 11:35:00
6:55 AM,73.6,71.6,93,29.98,2.0,Calm,Calm,-,N/A,,Clear,0,2013-08-30 11:55:00
7:15 AM,75.4,73.4,94,29.98,3.0,Calm,Calm,-,N/A,,Clear,0,2013-08-30 12:15:00
7:35 AM,77.4,75.4,94,29.98,5.0,Calm,Calm,-,N/A,,Clear,0,2013-08-30 12:35:00
7:55 AM,79.2,74.5,86,29.98,10.0,Calm,Calm,-,N/A,,Clear,0,2013-08-30 12:55:00
8:55 AM,83.8,74.3,73,29.98,10.0,Calm,Calm,-,N/A,,Clear,0,2013-08-30 13:55:00
9:15 AM,86.5,74.8,68,29.98,10.0,Calm,Calm,-,N/A,,Clear,0,2013-08-30 14:15:00
9:35 AM,88.0,74.8,65,29.98,10.0,West,3.5,-,N/A,,Clear,260,2013-08-30 14:35:00
9:55 AM,89.4,75.2,63,29.98,10.0,WSW,4.6,-,N/A,,Clear,240,2013-08-30 14:55:00
10:15 AM,89.4,75.4,63,29.98,10.0,WSW,5.8,-,N/A,,Clear,240,2013-08-30 15:15:00
10:35 AM,91.2,75.2,59,29.97,10.0,West,4.6,-,N/A,,Clear,260,2013-08-30 15:35:00
10:55 AM,92.7,75.6,57,29.97,10.0,SW,6.9,-,N/A,,Clear,230,2013-08-30 15:55:00
11:15 AM,93.0,75.2,56,29.97,10.0,WSW,8.1,-,N/A,,Clear,250,2013-08-30 16:15:00
11:35 AM,93.9,76.1,56,29.96,10.0,WSW,4.6,-,N/A,,Clear,240,2013-08-30 16:35:00
11:55 AM,94.5,75.2,53,29.96,10.0,WSW,9.2,-,N/A,,Clear,250,2013-08-30 16:55:00
12:15 PM,95.5,72.5,47,29.95,10.0,SW,9.2,-,N/A,,Clear,220,2013-08-30 17:15:00
12:55 PM,-9999,-9999,N/A,29.94,-9999.0,WSW,9.2,-,N/A,,Unknown,240,2013-08-30 17:55:00
1:15 PM,-9999,-9999,N/A,-9999,-9999.0,North,-9999.0,-,N/A,,Unknown,0,2013-08-30 18:15:00
1:35 PM,-9999,-9999,N/A,29.93,-9999.0,WSW,9.2,-,N/A,,Unknown,240,2013-08-30 18:35:00
2:15 PM,-9999,-9999,N/A,-9999,-9999.0,North,-9999.0,-,N/A,,Unknown,0,2013-08-30 19:15:00
2:35 PM,-9999,-9999,N/A,29.91,-9999.0,North,-9999.0,-,N/A,,Unknown,0,2013-08-30 19:35:00
2:55 PM,97.9,71.1,42,29.90,10.0,West,9.2,-,N/A,,Unknown,270,2013-08-30 19:55:00
3:15 PM,98.1,70.3,41,29.90,10.0,West,5.8,-,N/A,,Clear,270,2013-08-30 20:15:00
3:35 PM,-9999,-9999,N/A,-9999,-9999.0,North,-9999.0,-,N/A,,Unknown,0,2013-08-30 20:35:00
4:15 PM,-9999,-9999,N/A,29.88,-9999.0,SW,5.8,-,N/A,,Unknown,230,2013-08-30 21:15:00
4:35 PM,-9999,-9999,N/A,29.88,-9999.0,North,-9999.0,-,N/A,,Unknown,0,2013-08-30 21:35:00
4:55 PM,-9999,-9999,N/A,-9999,-9999.0,North,-9999.0,-,N/A,,Unknown,0,2013-08-30 21:55:00
5:35 PM,-9999,-9999,N/A,-9999,-9999.0,North,-9999.0,-,N/A,,Unknown,0,2013-08-30 22:35:00
5:55 PM,95.9,73.6,48,29.87,-9999.0,SW,4.6,-,N/A,,Unknown,220,2013-08-30 22:55:00
6:15 PM,94.3,73.4,51,29.87,10.0,South,9.2,-,N/A,,Unknown,190,2013-08-30 23:15:00
6:35 PM,91.9,73.8,55,29.86,10.0,SSW,8.1,-,N/A,,Clear,200,2013-08-30 23:35:00
6:55 PM,90.5,73.6,57,29.86,10.0,SSW,8.1,-,N/A,,Clear,200,2013-08-30 23:55:00
7:15 PM,88.9,73.6,60,29.87,10.0,SSW,6.9,-,N/A,,Clear,200,2013-08-31 00:15:00
7:35 PM,88.0,73.4,62,29.87,10.0,SSW,6.9,-,N/A,,Clear,200,2013-08-31 00:35:00
7:55 PM,86.4,73.6,66,29.87,10.0,SSW,4.6,-,N/A,,Clear,200,2013-08-31 00:55:00
8:15 PM,84.6,73.8,70,29.87,10.0,SSW,4.6,-,N/A,,Clear,200,2013-08-31 01:15:00
8:35 PM,83.3,73.9,73,29.88,10.0,South,3.5,-,N/A,,Clear,190,2013-08-31 01:35:00
8:55 PM,82.8,74.3,75,29.88,10.0,South,3.5,-,N/A,,Clear,190,2013-08-31 01:55:00
9:15 PM,81.9,74.3,78,29.88,10.0,South,4.6,-,N/A,,Clear,190,2013-08-31 02:15:00
9:35 PM,81.1,73.9,79,29.87,10.0,SSW,3.5,-,N/A,,Clear,200,2013-08-31 02:35:00
9:55 PM,81.0,73.9,79,29.87,10.0,South,4.6,-,N/A,,Clear,190,2013-08-31 02:55:00
10:15 PM,81.5,73.9,78,29.87,10.0,SSW,4.6,-,N/A,,Clear,200,2013-08-31 03:15:00
10:35 PM,81.0,73.9,79,29.87,10.0,South,4.6,-,N/A,,Clear,190,2013-08-31 03:35:00
10:55 PM,81.5,74.3,79,29.86,10.0,SSW,4.6,-,N/A,,Clear,200,2013-08-31 03:55:00
11:15 PM,82.2,74.3,77,29.86,10.0,SSW,6.9,-,N/A,,Clear,200,2013-08-31 04:15:00
11:35 PM,81.7,74.5,79,29.85,10.0,SSW,5.8,-,N/A,,Clear,210,2013-08-31 04:35:00
11:55 PM,81.5,74.5,79,29.86,10.0,SSW,3.5,-,N/A,,Clear,210,2013-08-31 04:55:00